Sei sulla pagina 1di 2

3T BIKE XXL

TELVE VALSUGANA (TN) 25/07/2021


MARATHON (61 KM)

Pos Nr. Nominativo Atleta G Nato il Cat Pos Nome Squadra Tempo RTime Km/h
1 1 PAEZ LEON Hector leonardo M 1982 OPEN 1 GIANT-LIV POLIMEDICAL 03:10:27.62 03:10:27.62 19,217
2 2 RIGHETTINI Andrea M 1992 OPEN 2 OLYMPIA FACTORY TEAM 03:17:13.39 03:17:13.39 18,558
3 3 VALERIO Domenico M 1991 OPEN 3 KTM - PROTEK - ELETTROSYSTEM 03:19:06.65 03:18:50.39 18,382
4 8 RISATTI Nicola M 1985 OPEN 4 ASD CHERO GROUP TEAM SFRENATI 03:30:40.65 03:30:40.65 17,373
5 21 FANTINATO Kevin M 1999 OPEN 5 TEAM BSR 03:30:59.90 03:30:42.66 17,346
6 51 ZAMBONI Andrea M 1982 M2 1 CARINA - BRAO CAFFE' 03:34:32.20 03:34:13.19 17,060
7 12 CARRARO Tiziano M 1985 OPEN 6 ASD CHERO GROUP TEAM SFRENATI 03:35:54.70 03:35:39.21 16,951
8 54 D'AGOSTINO Rosario M 1991 M1 1 GS MADONIE BIKE 03:35:57.20 03:35:36.96 16,948
9 69 PANIZ Luca M 1975 M4 1 TEAM SPACEBIKES 03:36:04.95 03:35:46.53 16,938
10 62 PINTARELLI Simone M 1985 M2 2 POLISPORTIVA BERSNTOL A.DILETTANTI 03:37:33.85 03:37:14.21 16,823
11 65 VERRA Manuel M 1988 M1 2 FASSA BIKE 03:38:41.11 03:38:23.70 16,736
12 68 CHILESE Paolo M 1981 M3 1 TREVIMAC BIKE TEAM ASD 03:39:33.43 03:39:13.91 16,670
13 7 DEHO Marzio M 1968 OPEN 7 OLYMPIA FACTORY TEAM 03:40:19.11 03:40:03.37 16,612
14 59 FORNI Alessandro M 1980 M3 2 ASD CHERO GROUP TEAM SFRENATI 03:40:45.43 03:40:25.79 16,579
15 53 CLAUSER Andrea M 1985 M2 3 ASD CHERO GROUP TEAM SFRENATI 03:41:40.22 03:41:21.60 16,511
16 9 PALLAORO Christian M 1984 OPEN 8 TEAM BSR 03:42:21.72 03:42:05.98 16,460
17 67 ZAMPEDRI Andrea M 1988 M1 3 LISSONE MTB ASD 03:43:03.47 03:42:45.26 16,408
18 131 PIAZZA Thomas M 1973 M4 2 SALTOS MOUNTAIN XTREAM 03:45:15.44 03:44:53.19 16,248
19 16 OLIVA Vittorio M 1991 OPEN 9 CARBONHUBO CMQ 03:45:16.45 03:45:16.45 16,247
20 64 TAVERNA Elia M 1985 M2 4 ASD BIKE AND FUN TEAM 03:46:47.48 03:46:26.76 16,138
21 19 FOCCOLI Davide M 2001 OPEN 10 ASD MONTICELLI BIKE 03:48:00.49 03:47:43.28 16,052
22 78 PINTARELLI Ivan M 1978 M3 3 TEAM BSR 03:48:10.45 03:47:50.20 16,040
23 61 LUDWIG Stefan M 1971 M5 1 TEAM BSR 03:48:46.88 03:48:27.64 15,998
24 125 MAGNANI Alberto M 1977 M3 4 CMQ CARBONHUBO 03:52:08.25 03:51:44.89 15,767
25 10 LENZI Alberto M 1997 OPEN 11 TEAM BSR 03:54:14.71 03:53:58.12 15,625
26 105 PIZZOLATO Christian M 1999 ELMT 1 PAVANELLO RACING TEAM 03:54:53.26 03:54:32.41 15,582
27 63 SEGATA Claudio M 1973 M4 3 TEAM TODESCO 03:55:05.51 03:54:47.67 15,568
28 66 BOMBARDELLI Andrea M 1982 M2 5 TEAM HEIDI 03:55:37.22 03:55:17.58 15,533
29 55 DE BERNARDIN Giulio M 1998 ELMT 2 ASD SWATT CLUB 03:56:52.76 03:56:32.92 15,451
30 71 BAZZANELLA Michele M 1969 M5 2 TEAM TODESCO 03:57:18.90 03:56:58.94 15,423
31 58 FLARER Tobias M 1977 M3 5 SC MERAN ZORZI KÄLTETECHNIK 03:57:31.15 03:57:10.43 15,409
32 126 FORER Thomas M 1991 M1 4 SALTOS MOUNTAIN XTREAM 04:00:44.52 04:00:21.17 15,203
35 5 MARIETTI Enrico M 2000 OPEN 12 GS LAGORAI BIKE 04:03:10.49 04:02:53.90 15,051
36 101 MORA Carlo M 1969 M5 3 ACD BIK BIKE 04:03:24.74 04:03:03.85 15,036
37 6 ANDRIOLLO Elia M 2001 OPEN 13 GS LAGORAI BIKE 04:08:26.05 04:08:09.05 14,732
38 110 VICENZI Daniel M 1994 ELMT 3 ASD CHERO GROUP TEAM SFRENATI 04:09:13.80 04:08:52.95 14,685
39 96 CASNA Loris M 1985 M2 6 CARINA - BRAO CAFFE' 04:11:22.30 04:11:01.45 14,560
40 99 LEONARDI Andrea M 1997 ELMT 4 KTM TORRE BIKE 04:13:29.19 04:13:07.31 14,439
42 56 DEFLORIAN Willi M 1967 M5 4 ASD PELLEGRIN CYCLING TEAM 04:14:41.52 04:14:22.51 14,370
43 72 BRUSCHETTI Sandro M 1964 M6 1 ASD BICI E SPORT 04:17:00.52 04:16:40.77 14,241
44 139 DEGASPERI Nicola M 1998 ELMT 5 INDIVIDUALE 04:17:57.57 04:17:32.25 14,188
45 52 DI GERONIMO Michele M 1966 M6 2 CARINA - BRAO CAFFE' 04:18:15.78 04:17:56.34 14,172
46 136 FORMELLI Daniel M 1998 ELMT 6 ASD SPORTWAY CYCLING TEAM 04:21:05.78 04:20:43.04 14,018
47 94 CALDONAZZI Tommaso M 1990 M1 5 NEW TEAM ASD 04:21:23.53 04:21:01.06 14,002
48 60 GUIZZO Andrea M 1992 ELMT 7 PAVANELLO RACING TEAM 04:23:56.84 04:23:37.61 13,866
49 20 TUTZER Peter M 2002 OPEN 14 ASC KARDAUN-CARDANO 04:25:07.79 04:24:50.54 13,805
50 73 OSS Agostino M 1956 M8 1 GSA PENNE SPRINT 04:27:34.85 04:27:14.35 13,678
51 23 CHIP NON ASSOCIATO 62005753 M 1995 OPEN 15 *** 04:27:54.85 04:27:54.85 13,661
52 103 MUNARO Alessandro M 1963 M6 3 OMAP CICLI ANDREIS 04:30:57.81 04:30:36.34 13,507
53 100 LEONI Claudio M 1982 M2 7 KTM TORRE BIKE 04:31:18.36 04:30:56.68 13,490
54 123 GIRARDI Federico M 1975 M4 4 TEAM EXECUTIVE 04:37:03.25 04:36:38.67 13,210
55 95 CASACCIO Orazio M 1963 M6 4 ASD SC TELGATE 04:43:12.09 04:42:51.61 12,924
56 129 FORLIN Gabriele M 1981 M3 6 SSD PEDALE FELTRINO 04:44:50.59 04:44:26.75 12,849
58 108 ZONTA Daniele M 1962 M6 5 ASD MB TEAM MACRO 04:51:27.86 04:51:04.37 12,557
59 132 CECCHIN Giorgio M 1988 M1 6 ASD MB TEAM MACRO 04:51:28.67 04:51:04.18 12,557
60 92 BACCHIOCCHI Valerio M 1984 M2 8 FASSA BIKE 04:52:05.42 04:51:44.75 12,530
61 106 TAVONATTI Diego M 1979 M3 7 ASD PREDAIA BIKE TEAM 04:52:33.61 04:52:11.13 12,510
62 91 ANDREATTA Cristian M 1994 ELMT 8 MTB CLUB GAERNE 04:52:57.61 04:52:36.15 12,493
63 107 ZAFFIGNANI Massimo M 1968 M5 5 ASD BIKE AND FUN TEAM 04:54:08.62 04:53:46.55 12,443
64 130 ZOTTA Manuel M 1972 M4 5 CARINA - BRAO CAFFE' 04:57:40.88 04:57:16.65 12,295

Classifiche Elaborate da SMS Sport


Pag. 1/2
3T BIKE XXL
TELVE VALSUGANA (TN) 25/07/2021
MARATHON (61 KM)

Pos Nr. Nominativo Atleta G Nato il Cat Pos Nome Squadra Tempo RTime Km/h
66 127 BORDIGNON Vanni M 1979 M3 8 ANGARANO TEAM 05:02:23.89 05:01:59.05 12,103
67 93 BECCARELLO Fabio M 1995 ELMT 9 MTB CLUB GAERNE 05:25:22.16 05:25:00.16 11,249
68 104 PANZETTA Stefano M 1973 M4 6 ASD GS CICLOAMATATORI CASTELMASSA 05:29:43.21 05:29:20.21 11,100
69 140 NICETTO Alberto M 1974 M4 7 ASD CARISMA TEAM 05:36:42.81 05:36:19.06 10,870
70 121 STOLL Markus M 1965 M6 6 RH RACING KRONPLATZKING 05:39:52.21 05:39:30.53 10,769
71 124 PLAITANO Alessandro M 1984 M2 9 ASD EXTREME BIKE SALERNO 05:41:29.24 05:41:03.92 10,718